Time;durP1;ratioP1;P1;durP2;ratioP2;P2;SDS_P1;SDS_P2;PMS_P1;PMS_P2;Temp;Humidity;BMP_temperature;BMP_pressure;BME280_temperature;BME280_humidity;BME280_pressure;Samples;Min_cycle;Max_cycle;Signal;HPM_P1;HPM_P2
2022/02/07 00:00:35;;;;;;;5.88;3.22;;;;;;;;;;7322425;19;154029;-17
2022/02/07 00:03:16;;;;;;;6.63;3.65;;;;;;;;;;7325701;19;153793;-17
2022/02/07 00:05:47;;;;;;;5.47;3.13;;;;;;;;;;7324321;19;161938;-17
2022/02/07 00:08:19;;;;;;;4.30;2.75;;;;;;;;;;7326007;19;162403;-18
2022/02/07 00:10:53;;;;;;;7.95;2.92;;;;;;;;;;7326714;19;154281;-19
2022/02/07 08:41:04;;;;;;;186.57;118.95;;;;;;;;;;7369832;19;132532;-14
2022/02/07 08:43:36;;;;;;;184.77;113.45;;;;;;;;;;7363495;19;153778;-14
2022/02/07 08:46:08;;;;;;;177.73;110.03;;;;;;;;;;7366709;19;161968;-15
2022/02/07 08:48:39;;;;;;;173.63;109.47;;;;;;;;;;7363272;19;162493;-15
2022/02/07 08:51:10;;;;;;;176.77;110.13;;;;;;;;;;7363570;19;153853;-14
2022/02/07 08:53:44;;;;;;;170.65;108.95;;;;;;;;;;7363402;19;154278;-16
2022/02/07 08:56:30;;;;;;;168.63;106.78;;;;;;;;;;7363394;19;161967;-15
2022/02/07 08:59:02;;;;;;;164.68;104.03;;;;;;;;;;7363280;19;163062;-15
2022/02/07 09:01:43;;;;;;;164.77;106.03;;;;;;;;;;7367388;19;153953;-15
2022/02/07 09:07:06;;;;;;;165.98;105.60;;;;;;;;;;7363001;19;161789;-15
2022/02/07 09:09:40;;;;;;;166.13;106.65;;;;;;;;;;7361824;19;162360;-15
2022/02/07 09:12:15;;;;;;;162.00;102.28;;;;;;;;;;7363955;19;153970;-16
2022/02/07 09:14:56;;;;;;;164.52;104.82;;;;;;;;;;7363428;19;153718;-15
2022/02/07 09:17:27;;;;;;;157.50;102.95;;;;;;;;;;7362756;19;161856;-15
2022/02/07 09:19:58;;;;;;;134.02;85.32;;;;;;;;;;7362802;19;162329;-16
2022/02/07 09:22:30;;;;;;;142.55;87.65;;;;;;;;;;7363052;19;153988;-15
2022/02/07 09:25:01;;;;;;;149.07;96.95;;;;;;;;;;7362968;19;153759;-14
2022/02/07 09:27:36;;;;;;;149.35;97.28;;;;;;;;;;7362348;19;161859;-15
2022/02/07 09:30:10;;;;;;;154.15;97.63;;;;;;;;;;7361841;19;162394;-14
2022/02/07 09:32:41;;;;;;;145.80;94.82;;;;;;;;;;7362769;19;153930;-14
2022/02/07 09:35:13;;;;;;;141.68;91.75;;;;;;;;;;7362556;19;153695;-14
2022/02/07 09:37:44;;;;;;;149.85;93.80;;;;;;;;;;7361632;19;161940;-14
2022/02/07 09:40:19;;;;;;;142.70;93.72;;;;;;;;;;7351728;19;162208;-15
2022/02/07 09:42:57;;;;;;;144.18;94.43;;;;;;;;;;7332357;19;154047;-15
2022/02/07 09:45:36;;;;;;;143.68;93.90;;;;;;;;;;7335141;19;153733;-14
2022/02/07 09:48:10;;;;;;;143.98;94.47;;;;;;;;;;7333031;19;161811;-15
2022/02/07 09:50:41;;;;;;;140.15;91.30;;;;;;;;;;7331086;19;162545;-15
2022/02/07 09:53:13;;;;;;;139.13;92.50;;;;;;;;;;7333488;19;153892;-15
2022/02/07 09:55:44;;;;;;;147.50;95.90;;;;;;;;;;7333349;19;153597;-14
2022/02/07 09:58:18;;;;;;;135.02;89.88;;;;;;;;;;7332784;19;161703;-14
2022/02/07 10:00:50;;;;;;;137.07;88.03;;;;;;;;;;7334855;19;162694;-15
2022/02/07 10:03:26;;;;;;;130.20;88.07;;;;;;;;;;7333289;19;153978;-15
2022/02/07 10:06:04;;;;;;;135.63;87.65;;;;;;;;;;7332981;19;153680;-15
2022/02/07 10:08:46;;;;;;;136.73;89.72;;;;;;;;;;7332565;19;161531;-15
2022/02/07 10:11:35;;;;;;;132.88;87.72;;;;;;;;;;7329982;19;162475;-15
2022/02/07 10:14:16;;;;;;;131.98;86.55;;;;;;;;;;7331399;19;154029;-15
2022/02/07 10:16:56;;;;;;;130.57;86.85;;;;;;;;;;7336820;19;153587;-15
2022/02/07 10:19:38;;;;;;;138.48;86.60;;;;;;;;;;7332225;19;161811;-16
2022/02/07 10:36:29;;;;;;;123.63;85.60;;;;;;;;;;7332136;19;153947;-15
2022/02/07 10:39:14;;;;;;;122.75;84.05;;;;;;;;;;7329961;19;153949;-15
2022/02/07 10:42:11;;;;;;;120.97;81.32;;;;;;;;;;7331817;19;161773;-15
2022/02/07 10:44:47;;;;;;;120.75;81.90;;;;;;;;;;7331851;19;162319;-16
2022/02/07 10:47:25;;;;;;;123.93;80.22;;;;;;;;;;7331634;19;153956;-15
2022/02/07 10:50:01;;;;;;;114.93;80.20;;;;;;;;;;7331086;19;153721;-15
2022/02/07 10:52:48;;;;;;;117.90;79.50;;;;;;;;;;7328807;19;161524;-15
2022/02/07 10:55:24;;;;;;;117.28;81.10;;;;;;;;;;7331318;19;162331;-15
2022/02/07 10:57:58;;;;;;;115.03;79.10;;;;;;;;;;7331636;19;154027;-14
2022/02/07 11:00:35;;;;;;;116.70;80.03;;;;;;;;;;7331873;19;153614;-15
2022/02/07 11:03:12;;;;;;;115.63;78.80;;;;;;;;;;7330972;19;161904;-16
2022/02/07 11:05:46;;;;;;;115.70;78.32;;;;;;;;;;7331091;19;162629;-14
2022/02/07 11:08:27;;;;;;;120.20;79.20;;;;;;;;;;7331125;19;153882;-16
2022/02/07 11:11:16;;;;;;;115.88;77.90;;;;;;;;;;7329712;19;154158;-15
2022/02/07 11:16:59;;;;;;;113.45;76.15;;;;;;;;;;7329932;19;162418;-14
2022/02/07 11:19:46;;;;;;;107.50;72.55;;;;;;;;;;7330858;19;153891;-15
2022/02/07 11:22:35;;;;;;;106.53;73.47;;;;;;;;;;7330698;19;153665;-15
2022/02/07 11:25:25;;;;;;;115.65;78.20;;;;;;;;;;7329909;19;162216;-15
2022/02/07 11:28:00;;;;;;;106.32;72.65;;;;;;;;;;7330589;19;162466;-14
2022/02/07 11:30:46;;;;;;;109.55;76.97;;;;;;;;;;7331521;19;155276;-16
2022/02/07 11:33:49;;;;;;;109.72;77.15;;;;;;;;;;7330541;19;153739;-14
2022/02/07 11:36:31;;;;;;;107.18;75.30;;;;;;;;;;7330130;19;162064;-16
2022/02/07 11:39:14;;;;;;;103.40;73.53;;;;;;;;;;7329618;19;162308;-15
2022/02/07 11:42:12;;;;;;;103.75;70.57;;;;;;;;;;7330241;19;154181;-16
2022/02/07 11:45:24;;;;;;;107.15;72.80;;;;;;;;;;7330237;19;153666;-15
2022/02/07 11:48:11;;;;;;;103.97;72.32;;;;;;;;;;7330059;19;161808;-15
2022/02/07 11:50:47;;;;;;;102.97;73.20;;;;;;;;;;7329095;19;162378;-15
2022/02/07 11:53:26;;;;;;;102.80;71.32;;;;;;;;;;7330067;19;154113;-16
2022/02/07 11:56:09;;;;;;;102.32;71.18;;;;;;;;;;7328718;19;153668;-16
2022/02/07 11:58:52;;;;;;;97.07;69.17;;;;;;;;;;7328223;19;162016;-16
2022/02/07 12:01:50;;;;;;;98.85;68.55;;;;;;;;;;7332878;19;162308;-16
2022/02/07 12:04:37;;;;;;;103.55;69.88;;;;;;;;;;7327683;19;153903;-14
2022/02/07 12:07:31;;;;;;;101.25;71.10;;;;;;;;;;7329918;19;153623;-14
2022/02/07 12:10:37;;;;;;;102.13;72.20;;;;;;;;;;7329264;19;161951;-14
2022/02/07 12:13:38;;;;;;;93.75;66.47;;;;;;;;;;7328037;19;162356;-14
2022/02/07 12:16:16;;;;;;;96.40;67.72;;;;;;;;;;7328331;19;153778;-15
2022/02/07 12:19:11;;;;;;;96.60;67.20;;;;;;;;;;7329072;19;153721;-15
2022/02/07 12:21:42;;;;;;;89.43;64.32;;;;;;;;;;7327655;19;161672;-14
2022/02/07 12:24:15;;;;;;;91.75;65.90;;;;;;;;;;7327682;19;162727;-13
2022/02/07 12:26:53;;;;;;;96.50;65.57;;;;;;;;;;7329871;19;154125;-15
2022/02/07 12:29:48;;;;;;;92.55;65.72;;;;;;;;;;7329436;19;153502;-16
2022/02/07 12:32:19;;;;;;;90.63;62.67;;;;;;;;;;7327118;19;161933;-14
2022/02/07 12:34:51;;;;;;;94.03;67.57;;;;;;;;;;7327892;19;162073;-16
2022/02/07 12:37:23;;;;;;;93.10;67.03;;;;;;;;;;7331943;19;154265;-14
2022/02/07 12:39:56;;;;;;;33.40;24.23;;;;;;;;;;7331194;19;157421;-16
2022/02/07 12:42:30;;;;;;;31.17;23.65;;;;;;;;;;7328922;19;161772;-16
2022/02/07 12:45:03;;;;;;;33.08;25.23;;;;;;;;;;7332989;19;162517;-16
2022/02/07 12:47:38;;;;;;;34.58;24.58;;;;;;;;;;7328606;19;154097;-17
2022/02/07 12:50:13;;;;;;;37.83;27.08;;;;;;;;;;7329601;19;153483;-16
2022/02/07 12:52:44;;;;;;;41.45;29.67;;;;;;;;;;7326229;19;162004;-15
2022/02/07 12:55:16;;;;;;;43.25;30.90;;;;;;;;;;7327562;19;162371;-14
2022/02/07 12:57:50;;;;;;;48.63;32.83;;;;;;;;;;7327845;19;153898;-14
2022/02/07 13:00:23;;;;;;;46.13;33.10;;;;;;;;;;7327953;19;153648;-15
2022/02/07 13:02:54;;;;;;;;;;;;;;;;;;7331531;19;162003;-14
2022/02/07 13:05:26;;;;;;;43.78;30.17;;;;;;;;;;7330211;19;162629;-14
2022/02/07 13:08:00;;;;;;;39.88;29.50;;;;;;;;;;7328432;19;153762;-15
2022/02/07 13:10:36;;;;;;;39.53;28.23;;;;;;;;;;7327335;19;153588;-15
2022/02/07 13:16:03;;;;;;;39.47;26.98;;;;;;;;;;7329120;19;162534;-15
2022/02/07 13:18:41;;;;;;;37.07;26.50;;;;;;;;;;7330933;19;154049;-15
2022/02/07 13:21:17;;;;;;;36.35;25.52;;;;;;;;;;7337175;19;153574;-15
2022/02/07 13:23:52;;;;;;;37.25;25.67;;;;;;;;;;7332462;19;162411;-14
2022/02/07 13:26:27;;;;;;;35.63;26.75;;;;;;;;;;7333514;19;162453;-15
2022/02/07 13:29:02;;;;;;;34.90;25.13;;;;;;;;;;7334062;19;153932;-15
2022/02/07 13:31:33;;;;;;;37.22;26.30;;;;;;;;;;7333657;19;153691;-14
2022/02/07 13:34:05;;;;;;;34.13;25.50;;;;;;;;;;7335817;19;161928;-15
2022/02/07 13:36:48;;;;;;;34.50;25.63;;;;;;;;;;7333795;19;162334;-15
2022/02/07 13:39:20;;;;;;;34.90;24.50;;;;;;;;;;7333079;19;154542;-15
2022/02/07 13:42:05;;;;;;;30.30;21.30;;;;;;;;;;7333434;19;153522;-14
2022/02/07 13:44:46;;;;;;;31.52;19.80;;;;;;;;;;7337526;19;161790;-14
2022/02/07 13:47:17;;;;;;;29.02;20.00;;;;;;;;;;7336459;19;162294;-14
2022/02/07 13:49:55;;;;;;;28.00;20.15;;;;;;;;;;7336386;19;153894;-14
2022/02/07 13:52:31;;;;;;;28.02;21.30;;;;;;;;;;7334119;19;153590;-15
2022/02/07 13:55:21;;;;;;;30.00;21.00;;;;;;;;;;7336281;19;161925;-15
2022/02/07 13:57:56;;;;;;;35.08;22.20;;;;;;;;;;7336618;19;162606;-14
2022/02/07 14:00:32;;;;;;;31.48;21.92;;;;;;;;;;7332803;19;155644;-14
2022/02/07 14:03:09;;;;;;;29.40;22.38;;;;;;;;;;7335868;19;153592;-14
2022/02/07 14:05:43;;;;;;;27.42;20.48;;;;;;;;;;7332900;19;161794;-15
2022/02/07 14:08:15;;;;;;;32.22;22.38;;;;;;;;;;7332819;19;162501;-15
2022/02/07 14:10:48;;;;;;;27.65;21.45;;;;;;;;;;7333228;19;154040;-14
2022/02/07 14:13:19;;;;;;;29.60;21.53;;;;;;;;;;7331440;19;153604;-14
2022/02/07 14:15:53;;;;;;;29.15;20.40;;;;;;;;;;7332197;19;161672;-15
2022/02/07 14:18:26;;;;;;;28.83;20.52;;;;;;;;;;7332337;19;162328;-14
2022/02/07 14:20:57;;;;;;;;;;;;;;;;;;7333159;19;153928;-15
2022/02/07 14:23:28;;;;;;;31.10;20.77;;;;;;;;;;7332705;19;154096;-14
2022/02/07 14:26:03;;;;;;;29.33;21.05;;;;;;;;;;7332214;19;161831;-15
2022/02/07 14:28:34;;;;;;;29.63;20.95;;;;;;;;;;7332305;19;162932;-14
2022/02/07 14:31:10;;;;;;;25.10;19.63;;;;;;;;;;7332369;19;154286;-15
2022/02/07 14:33:42;;;;;;;29.33;20.52;;;;;;;;;;7330525;19;153681;-15
2022/02/07 14:36:13;;;;;;;21.95;16.05;;;;;;;;;;7334416;19;161841;-14
2022/02/07 14:38:44;;;;;;;22.00;14.88;;;;;;;;;;7330695;19;162484;-15
2022/02/07 14:41:18;;;;;;;22.27;15.10;;;;;;;;;;7329479;19;154282;-14
2022/02/07 14:43:53;;;;;;;19.23;13.90;;;;;;;;;;7331671;19;153833;-14
2022/02/07 14:46:34;;;;;;;19.00;14.00;;;;;;;;;;7330385;19;162005;-15
2022/02/07 14:49:08;;;;;;;17.45;13.75;;;;;;;;;;7330421;19;162647;-14
2022/02/07 14:51:39;;;;;;;21.98;15.32;;;;;;;;;;7332132;19;154106;-15
2022/02/07 14:54:10;;;;;;;19.35;14.52;;;;;;;;;;7329749;19;153697;-14
2022/02/07 14:56:42;;;;;;;23.80;16.08;;;;;;;;;;7331119;19;161822;-15
2022/02/07 14:59:16;;;;;;;21.40;15.35;;;;;;;;;;7331353;19;163013;-15
2022/02/07 15:01:52;;;;;;;19.23;14.60;;;;;;;;;;7331778;19;153781;-15
2022/02/07 15:04:23;;;;;;;19.92;15.52;;;;;;;;;;7331403;19;153787;-15
2022/02/07 15:06:55;;;;;;;18.90;13.55;;;;;;;;;;7330933;19;162267;-15
2022/02/07 15:09:26;;;;;;;19.10;14.00;;;;;;;;;;7331173;19;162512;-14
2022/02/07 15:12:00;;;;;;;18.20;12.68;;;;;;;;;;7331305;19;154105;-15
2022/02/07 15:14:31;;;;;;;17.55;14.02;;;;;;;;;;7327875;19;153868;-15
2022/02/07 15:17:06;;;;;;;18.52;13.63;;;;;;;;;;7330886;19;161736;-15
2022/02/07 15:19:37;;;;;;;17.60;12.82;;;;;;;;;;7329344;19;162562;-15
2022/02/07 15:22:08;;;;;;;17.70;13.20;;;;;;;;;;7330935;19;153966;-15
2022/02/07 15:24:40;;;;;;;23.42;12.65;;;;;;;;;;7330881;19;153728;-15
2022/02/07 15:27:11;;;;;;;16.65;12.25;;;;;;;;;;7330543;19;162028;-15
2022/02/07 15:29:55;;;;;;;15.45;11.45;;;;;;;;;;7330294;19;162419;-15
2022/02/07 15:32:38;;;;;;;16.08;11.52;;;;;;;;;;7330665;19;154037;-15
2022/02/07 15:35:11;;;;;;;16.02;11.98;;;;;;;;;;7327968;19;153731;-15
2022/02/07 15:37:42;;;;;;;14.75;12.02;;;;;;;;;;7329935;19;161768;-15
2022/02/07 15:40:14;;;;;;;17.17;11.70;;;;;;;;;;7327565;19;162563;-15
2022/02/07 15:42:47;;;;;;;15.40;11.63;;;;;;;;;;7330308;19;154041;-14
2022/02/07 15:45:18;;;;;;;15.13;11.47;;;;;;;;;;7330302;19;153715;-15
2022/02/07 15:47:54;;;;;;;13.07;10.77;;;;;;;;;;7329929;19;162003;-14
2022/02/07 15:50:26;;;;;;;15.40;11.43;;;;;;;;;;7329613;19;162332;-15
2022/02/07 15:52:59;;;;;;;13.00;10.60;;;;;;;;;;7330142;19;153929;-14
2022/02/07 15:55:31;;;;;;;14.50;10.90;;;;;;;;;;7329854;19;153568;-14
2022/02/07 15:58:02;;;;;;;15.50;10.68;;;;;;;;;;7329652;19;161839;-16
2022/02/07 16:00:34;;;;;;;14.98;11.05;;;;;;;;;;7328324;19;162578;-15
2022/02/07 16:03:10;;;;;;;15.07;10.77;;;;;;;;;;7329654;19;153934;-24
2022/02/07 16:05:41;;;;;;;14.18;10.15;;;;;;;;;;7329809;19;153602;-15
2022/02/07 16:08:13;;;;;;;14.55;10.88;;;;;;;;;;7329100;19;161875;-15
2022/02/07 16:10:46;;;;;;;13.30;10.45;;;;;;;;;;7327845;19;162790;-15
2022/02/07 16:13:22;;;;;;;12.95;9.05;;;;;;;;;;7329513;19;153923;-16
2022/02/07 16:15:54;;;;;;;15.10;9.80;;;;;;;;;;7329384;19;153800;-15
2022/02/07 16:18:27;;;;;;;14.48;9.55;;;;;;;;;;7328829;19;161765;-15
2022/02/07 16:20:59;;;;;;;12.85;9.65;;;;;;;;;;7327948;19;162388;-15
2022/02/07 16:23:30;;;;;;;12.55;9.30;;;;;;;;;;7329036;19;153958;-15
2022/02/07 16:26:02;;;;;;;11.43;9.65;;;;;;;;;;7328807;19;153709;-13
2022/02/07 16:28:34;;;;;;;13.17;8.87;;;;;;;;;;7327305;19;161952;-14
2022/02/07 16:31:05;;;;;;;13.18;9.43;;;;;;;;;;7328680;19;162388;-13
2022/02/07 16:33:39;;;;;;;11.48;8.45;;;;;;;;;;7328373;19;153983;-13
2022/02/07 16:36:11;;;;;;;12.13;9.00;;;;;;;;;;7328513;19;153596;-14
2022/02/07 16:38:44;;;;;;;11.48;8.80;;;;;;;;;;7326959;19;161901;-14
2022/02/07 16:41:22;;;;;;;12.48;8.82;;;;;;;;;;7325639;19;162064;-15
2022/02/07 16:43:54;;;;;;;12.60;9.07;;;;;;;;;;7328763;19;153982;-15
2022/02/07 16:46:37;;;;;;;10.65;8.00;;;;;;;;;;7328655;19;153999;-14
2022/02/07 16:49:10;;;;;;;9.80;7.57;;;;;;;;;;7328184;19;161828;-15
2022/02/07 16:51:42;;;;;;;10.05;7.97;;;;;;;;;;7332757;19;162187;-16
2022/02/07 16:54:14;;;;;;;11.13;7.85;;;;;;;;;;7334925;19;154002;-15
2022/02/07 16:56:46;;;;;;;10.38;7.05;;;;;;;;;;7335077;19;153578;-15
2022/02/07 16:59:19;;;;;;;9.07;7.32;;;;;;;;;;7334599;19;161845;-15
2022/02/07 17:01:53;;;;;;;10.43;7.68;;;;;;;;;;7334678;19;162456;-14
2022/02/07 17:04:31;;;;;;;10.50;7.88;;;;;;;;;;7335134;19;154069;-15
2022/02/07 17:07:03;;;;;;;10.00;7.57;;;;;;;;;;7334431;19;153580;-15
2022/02/07 17:09:35;;;;;;;9.48;6.95;;;;;;;;;;7333855;19;162202;-15
2022/02/07 17:12:07;;;;;;;8.02;6.68;;;;;;;;;;7333804;19;162362;-15
2022/02/07 17:14:38;;;;;;;8.95;6.78;;;;;;;;;;7333611;19;154064;-14
2022/02/07 17:17:10;;;;;;;9.60;6.78;;;;;;;;;;7334559;19;153545;-15
2022/02/07 17:19:44;;;;;;;9.43;7.43;;;;;;;;;;7334430;19;161947;-16
2022/02/07 17:22:15;;;;;;;10.38;6.78;;;;;;;;;;7334035;19;162447;-17
2022/02/07 17:24:47;;;;;;;9.35;6.90;;;;;;;;;;7334372;19;153922;-15
2022/02/07 17:27:19;;;;;;;9.00;6.15;;;;;;;;;;7334363;19;153615;-15
2022/02/07 17:29:50;;;;;;;7.45;6.43;;;;;;;;;;7333830;19;162053;-15
2022/02/07 17:32:21;;;;;;;8.02;5.95;;;;;;;;;;7333666;19;162540;-14
2022/02/07 17:34:55;;;;;;;10.02;6.47;;;;;;;;;;7333414;19;154100;-14
2022/02/07 17:37:27;;;;;;;7.32;6.15;;;;;;;;;;7334072;19;153716;-16
2022/02/07 17:39:58;;;;;;;8.98;7.18;;;;;;;;;;7332180;19;161979;-14
2022/02/07 17:42:30;;;;;;;8.77;6.03;;;;;;;;;;7333101;19;162492;-15
2022/02/07 17:45:02;;;;;;;8.75;6.38;;;;;;;;;;7333583;19;154283;-15
2022/02/07 17:47:34;;;;;;;9.45;6.00;;;;;;;;;;7332324;19;153628;-16
2022/02/07 17:50:11;;;;;;;6.93;5.60;;;;;;;;;;7333219;19;161922;-15
2022/02/07 17:52:44;;;;;;;8.30;6.00;;;;;;;;;;7331743;19;162488;-14
2022/02/07 17:55:19;;;;;;;7.75;5.93;;;;;;;;;;7332399;19;153727;-15
2022/02/07 17:57:51;;;;;;;8.43;6.32;;;;;;;;;;7333480;19;153545;-15
2022/02/07 18:00:24;;;;;;;8.68;5.40;;;;;;;;;;7331691;19;161796;-14
2022/02/07 18:02:56;;;;;;;7.60;5.97;;;;;;;;;;7331985;19;162542;-15
2022/02/07 18:05:34;;;;;;;7.03;5.70;;;;;;;;;;7333470;19;154289;-16
2022/02/07 18:08:09;;;;;;;9.10;5.97;;;;;;;;;;7333083;19;153515;-14
2022/02/07 18:10:41;;;;;;;8.18;4.97;;;;;;;;;;7332875;19;162320;-14
2022/02/07 18:13:12;;;;;;;7.20;5.35;;;;;;;;;;7331852;19;162381;-14
2022/02/07 18:15:44;;;;;;;8.00;5.68;;;;;;;;;;7332091;19;154058;-14
2022/02/07 18:18:16;;;;;;;8.32;5.50;;;;;;;;;;7332769;19;153626;-14
2022/02/07 18:20:53;;;;;;;9.45;5.55;;;;;;;;;;7331193;19;162044;-14
2022/02/07 18:23:25;;;;;;;8.30;5.35;;;;;;;;;;7332759;19;162799;-15
2022/02/07 18:25:58;;;;;;;6.25;5.05;;;;;;;;;;7332828;19;154010;-14
2022/02/07 18:28:31;;;;;;;6.65;5.30;;;;;;;;;;7332571;19;153577;-15
2022/02/07 18:31:03;;;;;;;7.88;5.38;;;;;;;;;;7331958;19;161852;-15
2022/02/07 18:33:34;;;;;;;6.65;4.63;;;;;;;;;;7330678;19;162779;-16
2022/02/07 18:36:12;;;;;;;6.22;4.72;;;;;;;;;;7329790;19;154161;-14
2022/02/07 18:38:51;;;;;;;9.43;4.45;;;;;;;;;;7332325;19;153551;-15
2022/02/07 18:41:25;;;;;;;6.28;4.93;;;;;;;;;;7327935;19;162031;-15
2022/02/07 18:43:57;;;;;;;7.15;5.15;;;;;;;;;;7331578;19;162410;-26
2022/02/07 18:46:29;;;;;;;5.90;4.43;;;;;;;;;;7332195;19;154339;-15
2022/02/07 18:49:00;;;;;;;6.77;4.83;;;;;;;;;;7332108;19;153539;-15
2022/02/07 18:51:35;;;;;;;5.65;4.45;;;;;;;;;;7330498;19;161862;-14
2022/02/07 18:54:06;;;;;;;6.05;5.40;;;;;;;;;;7331212;19;162673;-14
2022/02/07 18:56:40;;;;;;;6.15;4.72;;;;;;;;;;7330077;19;154080;-15
2022/02/07 18:59:18;;;;;;;6.57;4.60;;;;;;;;;;7331358;19;153579;-14
2022/02/07 19:02:05;;;;;;;5.75;4.15;;;;;;;;;;7331117;19;161760;-15
2022/02/07 19:07:23;;;;;;;5.63;4.20;;;;;;;;;;7330565;19;154027;-15
2022/02/07 19:09:55;;;;;;;5.28;4.13;;;;;;;;;;7331259;19;153585;-14
2022/02/07 19:12:27;;;;;;;6.82;4.72;;;;;;;;;;7330581;19;162278;-14
2022/02/07 19:14:58;;;;;;;5.93;4.63;;;;;;;;;;7329156;19;162998;-15
2022/02/07 19:17:32;;;;;;;5.43;4.45;;;;;;;;;;7328966;19;153993;-15
2022/02/07 19:20:08;;;;;;;5.65;4.78;;;;;;;;;;7331188;19;153636;-14
2022/02/07 19:22:44;;;;;;;6.00;4.60;;;;;;;;;;7330725;19;161827;-16
2022/02/07 19:25:25;;;;;;;6.53;4.20;;;;;;;;;;7330407;19;162465;-15
2022/02/07 19:28:00;;;;;;;6.15;4.35;;;;;;;;;;7330856;19;153991;-14
2022/02/07 19:30:33;;;;;;;5.28;4.10;;;;;;;;;;7330969;19;153613;-15
2022/02/07 19:33:08;;;;;;;6.30;4.00;;;;;;;;;;7330566;19;161836;-14
2022/02/07 19:35:44;;;;;;;4.75;4.25;;;;;;;;;;7330158;19;162444;-16
2022/02/07 19:38:19;;;;;;;5.95;4.63;;;;;;;;;;7330557;19;154101;-15
2022/02/07 19:40:55;;;;;;;4.97;4.00;;;;;;;;;;7327789;19;153636;-15
2022/02/07 19:43:33;;;;;;;4.63;3.88;;;;;;;;;;7330172;19;161893;-14
2022/02/07 19:46:05;;;;;;;5.95;3.92;;;;;;;;;;7328779;19;162790;-14
2022/02/07 19:48:37;;;;;;;5.38;3.80;;;;;;;;;;7330422;19;154074;-14
2022/02/07 19:51:08;;;;;;;7.68;3.80;;;;;;;;;;7330199;19;153570;-14
2022/02/07 19:53:44;;;;;;;5.40;3.42;;;;;;;;;;7329953;19;161966;-14
2022/02/07 19:56:20;;;;;;;5.18;3.35;;;;;;;;;;7329624;19;162385;-15
2022/02/07 19:58:54;;;;;;;3.72;3.00;;;;;;;;;;7333428;19;153978;-15
2022/02/07 20:01:25;;;;;;;3.85;2.75;;;;;;;;;;7332666;19;153538;-14
2022/02/07 20:03:57;;;;;;;5.15;3.28;;;;;;;;;;7333223;19;162056;-14
2022/02/07 20:06:30;;;;;;;3.60;3.30;;;;;;;;;;7329729;19;162405;-14
2022/02/07 20:09:05;;;;;;;5.70;4.10;;;;;;;;;;7329934;19;154151;-16
2022/02/07 20:11:41;;;;;;;5.32;3.45;;;;;;;;;;7329786;19;153498;-15
2022/02/07 20:14:12;;;;;;;5.45;3.83;;;;;;;;;;7329108;19;162115;-13
2022/02/07 20:16:44;;;;;;;4.53;3.58;;;;;;;;;;7328465;19;162556;-15
2022/02/07 20:19:15;;;;;;;4.93;3.95;;;;;;;;;;7329423;19;154009;-16
2022/02/07 20:21:46;;;;;;;5.22;4.20;;;;;;;;;;7329346;19;153590;-15
2022/02/07 20:24:20;;;;;;;7.53;3.78;;;;;;;;;;7328640;19;161893;-15
2022/02/07 20:26:56;;;;;;;7.97;5.22;;;;;;;;;;7327663;19;162559;-14
2022/02/07 20:29:28;;;;;;;5.78;4.47;;;;;;;;;;7329289;19;154080;-16
2022/02/07 20:32:00;;;;;;;7.40;4.32;;;;;;;;;;7328753;19;153569;-16
2022/02/07 20:34:32;;;;;;;5.88;4.57;;;;;;;;;;7328734;19;161783;-15
2022/02/07 20:37:05;;;;;;;8.27;5.35;;;;;;;;;;7327774;19;162531;-13
2022/02/07 20:39:40;;;;;;;5.38;4.00;;;;;;;;;;7328146;19;154263;-15
2022/02/07 20:42:11;;;;;;;5.20;4.03;;;;;;;;;;7328733;19;153573;-14
2022/02/07 20:44:43;;;;;;;5.88;4.50;;;;;;;;;;7328279;19;161932;-14
2022/02/07 20:47:17;;;;;;;65.60;36.70;;;;;;;;;;7328037;19;162384;-15
2022/02/07 20:49:49;;;;;;;81.38;48.38;;;;;;;;;;7328248;19;154044;-15
2022/02/07 20:52:20;;;;;;;220.30;134.05;;;;;;;;;;7328442;19;153601;-15
2022/02/07 20:54:55;;;;;;;128.15;77.82;;;;;;;;;;7326990;19;161827;-14
2022/02/07 20:57:46;;;;;;;139.25;85.07;;;;;;;;;;7325851;19;162180;-15
2022/02/07 21:00:38;;;;;;;83.05;48.47;;;;;;;;;;7327900;19;154005;-19
2022/02/07 21:03:11;;;;;;;76.88;48.65;;;;;;;;;;7328705;19;153931;-14
2022/02/07 21:05:46;;;;;;;84.63;53.05;;;;;;;;;;7327446;19;161842;-27
2022/02/07 21:08:18;;;;;;;92.00;52.78;;;;;;;;;;7327373;19;162379;-15
2022/02/07 21:10:52;;;;;;;82.93;52.03;;;;;;;;;;7331970;19;154025;-15
2022/02/07 21:13:24;;;;;;;88.72;54.42;;;;;;;;;;7328138;19;153617;-15
2022/02/07 21:15:55;;;;;;;83.47;51.97;;;;;;;;;;7326177;19;161916;-13
2022/02/07 21:18:26;;;;;;;88.45;51.30;;;;;;;;;;7326993;19;162387;-15
2022/02/07 21:20:58;;;;;;;84.75;50.58;;;;;;;;;;7327385;19;154025;-16
2022/02/07 21:23:29;;;;;;;80.57;50.50;;;;;;;;;;7327037;19;153805;-15
2022/02/07 21:26:05;;;;;;;93.22;52.55;;;;;;;;;;7329160;19;161816;-15
2022/02/07 21:28:37;;;;;;;82.65;50.20;;;;;;;;;;7330194;19;162573;-15
2022/02/07 21:31:09;;;;;;;82.43;50.38;;;;;;;;;;7330057;19;154015;-14
2022/02/07 21:33:44;;;;;;;78.97;48.35;;;;;;;;;;7328787;19;153662;-15
2022/02/07 21:36:24;;;;;;;75.90;48.53;;;;;;;;;;7328992;19;161859;-14
2022/02/07 21:38:56;;;;;;;75.30;48.38;;;;;;;;;;7334863;19;162386;-15
2022/02/07 21:41:31;;;;;;;78.88;49.10;;;;;;;;;;7333549;19;154005;-14
2022/02/07 21:44:03;;;;;;;80.07;49.58;;;;;;;;;;7336999;19;153610;-15
2022/02/07 21:46:37;;;;;;;76.00;46.83;;;;;;;;;;7336914;19;161858;-15
2022/02/07 21:49:12;;;;;;;73.57;47.33;;;;;;;;;;7335237;19;162356;-15
2022/02/07 21:51:44;;;;;;;73.22;46.55;;;;;;;;;;7336170;19;154125;-14
2022/02/07 21:54:15;;;;;;;72.10;45.83;;;;;;;;;;7336506;19;153690;-16
2022/02/07 21:56:49;;;;;;;76.78;45.75;;;;;;;;;;7336248;19;162193;-14
2022/02/07 21:59:21;;;;;;;67.50;44.10;;;;;;;;;;7334444;19;162384;-14
2022/02/07 22:01:52;;;;;;;67.38;44.10;;;;;;;;;;7336518;19;154342;-15
2022/02/07 22:04:25;;;;;;;105.65;67.75;;;;;;;;;;7335794;19;153628;-15
2022/02/07 22:06:56;;;;;;;107.65;70.43;;;;;;;;;;7336364;19;162074;-15
2022/02/07 22:09:30;;;;;;;116.03;72.35;;;;;;;;;;7335915;19;162509;-14
2022/02/07 22:12:05;;;;;;;82.10;54.10;;;;;;;;;;7336252;19;154324;-15
2022/02/07 22:14:51;;;;;;;76.85;47.63;;;;;;;;;;7334914;19;153733;-15
2022/02/07 22:17:38;;;;;;;80.80;53.38;;;;;;;;;;7335624;19;161901;-15
2022/02/07 22:20:10;;;;;;;78.53;49.22;;;;;;;;;;7335878;19;162414;-14
2022/02/07 22:22:42;;;;;;;80.38;49.97;;;;;;;;;;7334831;19;153930;-15
2022/02/07 22:25:13;;;;;;;79.07;47.00;;;;;;;;;;7332699;19;155782;-15
2022/02/07 22:27:47;;;;;;;77.32;47.00;;;;;;;;;;7335516;19;161829;-14
2022/02/07 22:30:21;;;;;;;77.40;48.80;;;;;;;;;;7335362;19;162590;-16
2022/02/07 22:32:59;;;;;;;67.45;45.38;;;;;;;;;;7333691;19;153894;-15
2022/02/07 22:35:30;;;;;;;71.70;45.38;;;;;;;;;;7335079;19;153607;-15
2022/02/07 22:38:01;;;;;;;69.78;46.15;;;;;;;;;;7334599;19;161886;-15
2022/02/07 22:40:32;;;;;;;69.32;46.38;;;;;;;;;;7333176;19;162382;-14
2022/02/07 22:43:07;;;;;;;71.43;43.15;;;;;;;;;;7334745;19;154375;-16
2022/02/07 22:45:39;;;;;;;71.38;43.75;;;;;;;;;;7334300;19;153845;-15
2022/02/07 22:48:10;;;;;;;71.10;45.80;;;;;;;;;;7333832;19;162480;-15
2022/02/07 22:50:41;;;;;;;68.38;44.22;;;;;;;;;;7334903;19;162323;-15
2022/02/07 22:53:13;;;;;;;75.13;47.92;;;;;;;;;;7333700;19;153986;-15
2022/02/07 22:55:45;;;;;;;72.07;46.93;;;;;;;;;;7333085;19;153908;-15
2022/02/07 22:58:19;;;;;;;73.90;48.38;;;;;;;;;;7333329;19;161979;-15
2022/02/07 23:00:56;;;;;;;69.78;46.55;;;;;;;;;;7335361;19;162363;-16
2022/02/07 23:03:33;;;;;;;69.63;44.10;;;;;;;;;;7333042;19;153930;-15
2022/02/07 23:06:07;;;;;;;67.68;44.35;;;;;;;;;;7331142;19;154018;-14
2022/02/07 23:14:36;;;;;;;60.75;42.58;;;;;;;;;;7330549;19;154157;-15
2022/02/07 23:20:26;;;;;;;65.28;41.55;;;;;;;;;;7332968;19;162005;-14
2022/02/07 23:31:51;;;;;;;56.03;37.20;;;;;;;;;;7330519;19;162073;-15
2022/02/07 23:34:34;;;;;;;56.38;37.70;;;;;;;;;;7333581;19;162691;-14
2022/02/07 23:37:13;;;;;;;60.22;40.55;;;;;;;;;;7330668;19;154004;-15
2022/02/07 23:39:51;;;;;;;58.00;37.90;;;;;;;;;;7328766;19;153762;-15
2022/02/07 23:42:29;;;;;;;55.65;37.30;;;;;;;;;;7330131;19;161906;-15
2022/02/07 23:45:03;;;;;;;50.50;35.35;;;;;;;;;;7330006;19;162626;-15
2022/02/07 23:47:41;;;;;;;52.58;35.28;;;;;;;;;;7330227;19;154122;-14
2022/02/07 23:50:19;;;;;;;55.80;37.47;;;;;;;;;;7330215;19;153993;-14
2022/02/07 23:53:13;;;;;;;55.22;36.95;;;;;;;;;;7329866;19;161848;-14
2022/02/07 23:55:59;;;;;;;50.55;34.60;;;;;;;;;;7329574;19;162419;-15
2022/02/07 23:58:36;;;;;;;56.70;36.97;;;;;;;;;;7330085;19;154202;-14
